createdAt,value
2022-09-21T00:02:23.453Z,6.50
2022-09-21T00:07:26.281Z,6.60
2022-09-21T00:12:29.401Z,6.60
2022-09-21T00:17:31.913Z,6.50
2022-09-21T00:22:34.481Z,6.40
2022-09-21T00:27:37.416Z,6.40
2022-09-21T00:32:40.112Z,6.40
2022-09-21T00:37:42.510Z,6.50
2022-09-21T00:42:44.904Z,6.30
2022-09-21T00:47:51.840Z,6.20
2022-09-21T00:52:58.131Z,6.10
2022-09-21T00:58:09.588Z,6.00
2022-09-21T01:03:13.398Z,5.90
2022-09-21T01:08:17.902Z,5.80
2022-09-21T01:14:04.444Z,5.90
2022-09-21T01:19:24.990Z,6.00
2022-09-21T01:24:49.014Z,6.10
2022-09-21T01:29:54.155Z,6.30
2022-09-21T01:35:05.461Z,6.50
2022-09-21T01:40:22.267Z,6.70
2022-09-21T01:45:48.030Z,6.90
2022-09-21T01:50:55.046Z,7.00
2022-09-21T01:56:09.932Z,7.20
2022-09-21T02:01:18.173Z,7.40
2022-09-21T02:06:21.023Z,7.40
2022-09-21T02:11:24.412Z,7.50
2022-09-21T02:16:37.242Z,7.60
2022-09-21T02:22:03.370Z,7.70
2022-09-21T02:27:22.079Z,7.70
2022-09-21T02:32:35.264Z,7.80
2022-09-21T02:37:45.785Z,7.90
2022-09-21T02:42:53.865Z,7.90
2022-09-21T02:48:02.455Z,8.00
2022-09-21T02:53:07.435Z,8.10
2022-09-21T02:58:14.391Z,8.10
2022-09-21T03:03:24.878Z,8.20
2022-09-21T03:08:27.366Z,8.20
2022-09-21T03:13:30.244Z,8.30
2022-09-21T03:18:33.277Z,8.30
2022-09-21T03:23:35.786Z,8.30
2022-09-21T03:28:38.702Z,8.40
2022-09-21T03:33:41.200Z,8.40
2022-09-21T03:38:44.348Z,8.50
2022-09-21T03:43:46.848Z,8.60
2022-09-21T03:48:49.233Z,8.60
2022-09-21T03:53:51.713Z,8.70
2022-09-21T03:58:54.235Z,8.70
2022-09-21T04:03:56.869Z,8.70
2022-09-21T04:09:00.387Z,8.80
2022-09-21T04:14:02.996Z,8.90
2022-09-21T04:19:07.231Z,8.90
2022-09-21T04:24:09.739Z,9.00
2022-09-21T04:29:15.999Z,9.00
2022-09-21T04:34:18.738Z,9.10
2022-09-21T04:39:21.197Z,9.20
2022-09-21T04:44:23.856Z,9.20
2022-09-21T04:49:26.474Z,9.30
2022-09-21T04:54:28.942Z,9.30
2022-09-21T04:59:31.324Z,9.40
2022-09-21T05:04:33.900Z,9.40
2022-09-21T05:09:55.219Z,9.50
2022-09-21T05:14:57.641Z,9.50
2022-09-21T05:20:00.102Z,9.50
2022-09-21T05:25:02.668Z,9.50
2022-09-21T05:30:06.370Z,9.60
2022-09-21T05:35:29.968Z,9.70
2022-09-21T05:40:32.931Z,9.70
2022-09-21T05:45:37.071Z,9.80
2022-09-21T05:51:06.902Z,9.80
2022-09-21T05:56:27.906Z,10.00
2022-09-21T06:01:46.373Z,10.00
2022-09-21T06:06:49.309Z,10.10
2022-09-21T06:11:52.027Z,10.30
2022-09-21T06:16:54.525Z,10.40
2022-09-21T06:21:56.988Z,10.50
2022-09-21T06:26:59.358Z,10.60
2022-09-21T06:32:05.350Z,10.70
2022-09-21T06:37:08.965Z,10.80
2022-09-21T06:42:11.544Z,10.60
2022-09-21T06:47:13.951Z,10.80
2022-09-21T06:52:16.379Z,10.80
2022-09-21T06:57:19.102Z,10.90
2022-09-21T07:02:22.007Z,11.00
2022-09-21T07:07:24.761Z,11.10
2022-09-21T07:12:29.339Z,11.30
2022-09-21T07:17:36.629Z,11.50
2022-09-21T07:22:40.901Z,11.60
2022-09-21T07:27:43.456Z,11.80
2022-09-21T07:32:45.954Z,11.90
2022-09-21T07:37:48.632Z,11.70
2022-09-21T07:42:51.088Z,11.80
2022-09-21T07:47:56.717Z,12.00
2022-09-21T07:53:00.711Z,12.10
2022-09-21T07:58:21.779Z,12.20
2022-09-21T08:03:24.308Z,12.30
2022-09-21T08:08:26.928Z,12.40
2022-09-21T08:13:30.220Z,12.50
2022-09-21T08:18:36.453Z,12.60
2022-09-21T08:23:42.766Z,12.80
2022-09-21T08:28:49.291Z,13.10
2022-09-21T08:33:53.020Z,13.20
2022-09-21T08:38:57.873Z,13.20
2022-09-21T08:44:07.439Z,13.20
2022-09-21T08:49:26.989Z,13.00
2022-09-21T08:54:43.974Z,13.00
2022-09-21T08:59:48.352Z,12.90
2022-09-21T09:04:58.021Z,13.70
2022-09-21T09:10:16.120Z,13.90
2022-09-21T09:15:54.560Z,13.60
2022-09-21T09:21:10.542Z,14.00
2022-09-21T09:26:21.160Z,14.60
2022-09-21T09:31:33.296Z,14.90
2022-09-21T09:36:57.257Z,14.90
2022-09-21T09:42:14.525Z,14.60
2022-09-21T09:47:25.893Z,14.60
2022-09-21T09:52:28.430Z,15.00
2022-09-21T09:57:33.430Z,14.70
2022-09-21T10:02:55.820Z,14.70
2022-09-21T10:07:58.579Z,14.60
2022-09-21T10:13:16.700Z,14.30
2022-09-21T10:18:23.869Z,14.20
2022-09-21T10:23:28.691Z,14.90
2022-09-21T10:28:31.895Z,15.60
2022-09-21T10:33:43.795Z,15.30
2022-09-21T10:38:46.235Z,14.70
2022-09-21T10:43:50.793Z,14.60
2022-09-21T10:48:53.376Z,14.90
2022-09-21T10:53:56.232Z,15.10
2022-09-21T10:59:24.916Z,15.30
2022-09-21T11:04:27.354Z,15.00
2022-09-21T11:10:03.515Z,15.10
2022-09-21T11:15:30.312Z,14.90
2022-09-21T11:20:51.457Z,14.30
2022-09-21T11:26:05.615Z,13.40
2022-09-21T11:31:49.539Z,13.10
2022-09-21T11:37:09.980Z,12.90
2022-09-21T11:42:17.562Z,13.20
2022-09-21T11:47:29.142Z,14.10
2022-09-21T11:53:05.029Z,14.90
2022-09-21T11:58:45.274Z,15.10
2022-09-21T12:03:53.929Z,15.40
2022-09-21T12:09:27.483Z,15.50
2022-09-21T12:15:08.223Z,15.40
2022-09-21T12:20:21.362Z,16.00
2022-09-21T12:25:37.367Z,15.80
2022-09-21T12:30:44.255Z,15.50
2022-09-21T12:41:21.529Z,14.40
2022-09-21T12:46:31.231Z,14.30
2022-09-21T12:51:36.758Z,14.30
2022-09-21T12:56:49.974Z,14.30
2022-09-21T13:02:15.419Z,14.00
2022-09-21T13:07:46.352Z,13.80
2022-09-21T13:12:55.371Z,13.70
2022-09-21T13:18:06.852Z,14.00
2022-09-21T13:23:17.977Z,13.90
2022-09-21T13:28:24.057Z,13.70
2022-09-21T13:33:26.875Z,13.90
2022-09-21T13:38:34.083Z,14.10
2022-09-21T13:43:50.092Z,14.30
2022-09-21T13:48:53.911Z,14.10
2022-09-21T13:53:59.300Z,14.10
2022-09-21T13:59:01.873Z,14.10
2022-09-21T14:04:18.041Z,14.00
2022-09-21T14:09:27.013Z,14.00
2022-09-21T14:14:37.217Z,13.90
2022-09-21T14:19:40.057Z,15.90
2022-09-21T14:24:51.247Z,13.90
2022-09-21T14:30:24.251Z,14.00
2022-09-21T14:35:33.744Z,14.20
2022-09-21T14:40:39.559Z,14.10
2022-09-21T14:45:55.840Z,13.80
2022-09-21T14:51:05.583Z,13.70
2022-09-21T14:56:39.082Z,13.90
2022-09-21T15:01:58.218Z,14.10
2022-09-21T15:07:41.130Z,13.20
2022-09-21T15:13:05.500Z,12.10
2022-09-21T15:18:20.787Z,12.20
2022-09-21T15:23:25.648Z,12.40
2022-09-21T15:29:05.167Z,12.50
2022-09-21T15:34:05.926Z,12.30
2022-09-21T15:39:23.208Z,12.20
2022-09-21T15:44:33.196Z,12.00
2022-09-21T15:49:36.679Z,12.00
2022-09-21T15:54:52.054Z,12.00
2022-09-21T15:59:56.152Z,12.00
2022-09-21T16:04:58.944Z,12.00
2022-09-21T16:10:02.929Z,12.00
2022-09-21T16:15:18.783Z,11.90
2022-09-21T16:20:23.685Z,11.90
2022-09-21T16:25:30.355Z,11.80
2022-09-21T16:30:52.582Z,11.70
2022-09-21T16:35:56.831Z,11.50
2022-09-21T16:41:01.347Z,11.10
2022-09-21T16:46:04.344Z,10.90
2022-09-21T16:51:13.067Z,10.80
2022-09-21T16:56:16.444Z,10.40
2022-09-21T17:01:20.979Z,10.00
2022-09-21T17:06:23.778Z,10.00
2022-09-21T17:11:27.168Z,9.70
2022-09-21T17:16:29.852Z,9.80
2022-09-21T17:21:32.558Z,9.80
2022-09-21T17:26:35.485Z,9.90
2022-09-21T17:31:38.946Z,9.70
2022-09-21T17:36:41.819Z,9.40
2022-09-21T17:42:02.509Z,9.30
2022-09-21T17:47:29.503Z,9.60
2022-09-21T17:52:52.433Z,10.10
2022-09-21T17:58:33.690Z,10.50
2022-09-21T18:03:42.049Z,10.70
2022-09-21T18:08:45.278Z,10.60
2022-09-21T18:14:15.337Z,10.60
2022-09-21T18:19:42.791Z,10.50
2022-09-21T18:24:50.191Z,10.40
2022-09-21T18:29:53.191Z,10.20
2022-09-21T18:35:10.935Z,9.90
2022-09-21T18:40:23.411Z,9.70
2022-09-21T18:45:45.671Z,9.60
2022-09-21T18:50:57.255Z,9.50
2022-09-21T18:56:00.954Z,9.60
2022-09-21T19:01:04.678Z,9.70
2022-09-21T19:06:15.377Z,9.70
2022-09-21T19:11:56.375Z,9.60
2022-09-21T19:17:27.108Z,9.50
2022-09-21T19:22:41.443Z,9.30
2022-09-21T21:00:34.168Z,5.60
2022-09-21T21:05:42.376Z,5.70
2022-09-21T21:10:52.888Z,5.50
2022-09-21T21:16:14.586Z,5.60
2022-09-21T21:21:19.938Z,5.60
2022-09-21T21:27:00.262Z,5.40
2022-09-21T21:32:04.011Z,5.40
2022-09-21T21:37:08.076Z,5.30
2022-09-21T21:42:58.739Z,5.30
2022-09-21T21:48:12.553Z,5.50
2022-09-21T21:53:32.367Z,5.30
2022-09-21T21:58:40.161Z,5.30
2022-09-21T22:03:58.627Z,5.10
2022-09-21T22:20:20.561Z,4.70
2022-09-21T22:25:23.117Z,3.90
2022-09-21T22:30:26.026Z,4.60
2022-09-21T22:35:28.794Z,4.40
2022-09-21T22:40:31.634Z,4.60
2022-09-21T22:45:34.379Z,4.50
2022-09-21T22:50:37.145Z,4.30
2022-09-21T22:55:39.754Z,4.40
2022-09-21T23:00:42.409Z,4.20
2022-09-21T23:05:55.122Z,4.20
2022-09-21T23:11:06.385Z,4.10
2022-09-21T23:16:11.859Z,4.20
2022-09-21T23:21:17.456Z,4.10
2022-09-21T23:26:23.287Z,4.00
2022-09-21T23:31:27.248Z,4.20
2022-09-21T23:36:31.947Z,4.00
2022-09-21T23:41:36.320Z,3.80
2022-09-21T23:46:40.076Z,3.80
2022-09-21T23:51:42.638Z,3.70
2022-09-21T23:56:45.574Z,3.60
